Time;durP1;ratioP1;P1;durP2;ratioP2;P2;SDS_P1;SDS_P2;PMS_P1;PMS_P2;Temp;Humidity;BMP_temperature;BMP_pressure;BME280_temperature;BME280_humidity;BME280_pressure;Samples;Min_cycle;Max_cycle;Signal;HPM_P1;HPM_P2
2020/12/06 00:01:10;;;;;;;;;;;;;;;0.87;95.27;97670.63;4947957;28;20614;-94
2020/12/06 00:03:36;;;;;;;;;;;;;;;1.18;94.62;97668.44;4948013;28;19933;-94
2020/12/06 00:06:05;;;;;;;;;;;;;;;1.22;93.79;97674.31;4950368;28;20154;-95
2020/12/06 00:08:30;;;;;;;;;;;;;;;1.23;93.51;97660.75;4949049;28;20388;-93
2020/12/06 00:10:56;;;;;;;;;;;;;;;1.46;93.38;97655.34;4948897;28;20012;-94
2020/12/06 00:13:22;;;;;;;;;;;;;;;1.32;93.21;97657.25;4950292;28;19926;-94
2020/12/06 00:15:47;;;;;;;;;;;;;;;1.17;93.50;97651.56;4949002;28;20779;-94
2020/12/06 00:18:17;;;;;;;;;;;;;;;0.34;98.02;97634.19;4949251;28;20338;-94
2020/12/06 00:20:42;;;;;;;;;;;;;;;0.31;98.67;97602.16;4961203;28;19957;-94
2020/12/06 00:23:07;;;;;;;;;;;;;;;0.55;97.52;97587.50;4953323;28;19972;-94
2020/12/06 00:25:33;;;;;;;;;;;;;;;0.66;96.71;97598.28;4950098;28;20017;-95
2020/12/06 00:27:58;;;;;;;;;;;;;;;0.57;97.56;97619.56;4950506;28;19992;-94
2020/12/06 00:30:23;;;;;;;;;;;;;;;0.62;96.91;97652.41;4948841;28;19926;-94
2020/12/06 00:32:48;;;;;;;;;;;;;;;0.48;97.74;97680.47;4950329;28;19937;-93
2020/12/06 00:35:14;;;;;;;;;;;;;;;0.40;97.80;97683.06;4950948;28;20366;-93
2020/12/06 00:37:40;;;;;;;;;;;;;;;0.52;97.44;97671.13;4951916;28;19930;-93
2020/12/06 00:40:09;;;;;;;;;;;;;;;0.59;97.25;97648.22;4951608;28;19942;-93
2020/12/06 00:42:35;;;;;;;;;;;;;;;0.97;95.36;97628.25;4941531;28;19925;-92
2020/12/06 00:45:00;;;;;;;;;;;;;;;1.04;94.50;97627.28;4948341;28;20344;-92
2020/12/06 00:47:26;;;;;;;;;;;;;;;1.18;94.52;97596.63;4948033;28;20581;-94
2020/12/06 00:49:51;;;;;;;;;;;;;;;1.22;92.85;97578.78;4947355;28;20396;-93
2020/12/06 00:52:16;;;;;;;;;;;;;;;1.32;92.36;97571.03;4949215;28;19929;-93
2020/12/06 00:54:42;;;;;;;;;;;;;;;1.15;93.46;97577.22;4948040;28;20379;-94
2020/12/06 00:57:07;;;;;;;;;;;;;;;0.90;95.46;97598.78;4947988;28;19930;-94
2020/12/06 00:59:32;;;;;;;;;;;;;;;0.81;95.09;97636.06;4948334;28;19942;-93
2020/12/06 01:01:58;;;;;;;;;;;;;;;0.59;96.11;97647.38;4947369;28;20755;-94
2020/12/06 01:04:23;;;;;;;;;;;;;;;0.67;96.42;97630.38;4947867;28;20454;-92
2020/12/06 01:06:48;;;;;;;;;;;;;;;0.41;96.91;97623.13;4949312;28;19969;-93
2020/12/06 01:09:14;;;;;;;;;;;;;;;0.70;95.66;97615.13;4947738;28;19972;-94
2020/12/06 01:11:39;;;;;;;;;;;;;;;0.96;94.55;97611.38;4947670;28;19969;-93
2020/12/06 01:14:04;;;;;;;;;;;;;;;0.34;98.05;97598.75;4948034;28;20557;-94
2020/12/06 01:16:29;;;;;;;;;;;;;;;0.54;97.96;97578.22;4948085;28;19922;-93
2020/12/06 01:18:55;;;;;;;;;;;;;;;0.52;97.62;97579.94;4946717;28;19930;-93
2020/12/06 01:21:20;;;;;;;;;;;;;;;0.64;97.12;97579.75;4948672;28;19922;-93
2020/12/06 01:23:45;;;;;;;;;;;;;;;0.82;94.86;97597.22;4949475;28;20024;-93
2020/12/06 01:26:14;;;;;;;;;;;;;;;0.43;96.67;97610.47;4947755;28;20125;-93
2020/12/06 01:28:39;;;;;;;;;;;;;;;0.22;97.94;97609.88;4949469;28;19921;-93
2020/12/06 01:31:08;;;;;;;;;;;;;;;0.08;98.89;97629.47;4940409;28;19922;-93
2020/12/06 01:33:33;;;;;;;;;;;;;;;0.14;98.88;97624.34;4958545;28;19928;-93
2020/12/06 01:35:59;;;;;;;;;;;;;;;0.17;98.29;97629.38;4948385;28;19914;-93
2020/12/06 01:38:24;;;;;;;;;;;;;;;0.38;98.46;97633.31;4946688;28;19937;-93
2020/12/06 01:40:49;;;;;;;;;;;;;;;0.64;96.75;97620.31;4948938;28;20336;-92
2020/12/06 01:43:14;;;;;;;;;;;;;;;1.07;95.00;97606.09;4951889;28;20048;-93
2020/12/06 01:45:40;;;;;;;;;;;;;;;1.15;94.34;97615.25;4952469;28;19921;-92
2020/12/06 01:48:09;;;;;;;;;;;;;;;1.00;93.33;97615.50;4950235;28;19925;-93
2020/12/06 01:50:35;;;;;;;;;;;;;;;0.60;95.62;97629.63;4947836;28;19961;-92
2020/12/06 01:53:00;;;;;;;;;;;;;;;0.81;95.03;97628.47;4946616;28;20036;-93
2020/12/06 01:55:25;;;;;;;;;;;;;;;0.93;94.89;97627.44;4952224;28;20367;-93
2020/12/06 01:57:51;;;;;;;;;;;;;;;0.90;94.41;97631.72;4952791;28;19985;-93
2020/12/06 02:00:17;;;;;;;;;;;;;;;1.10;94.21;97614.50;4951921;28;19922;-94
2020/12/06 02:02:43;;;;;;;;;;;;;;;1.15;93.56;97597.50;4950667;28;19944;-92
2020/12/06 02:05:08;;;;;;;;;;;;;;;1.21;93.14;97597.41;4950541;28;20274;-94
2020/12/06 02:07:33;;;;;;;;;;;;;;;0.97;94.30;97588.50;4952671;28;19945;-92
2020/12/06 02:09:59;;;;;;;;;;;;;;;0.62;95.05;97594.97;4951329;28;20386;-93
2020/12/06 02:12:24;;;;;;;;;;;;;;;0.69;97.24;97608.41;4951728;28;19922;-93
2020/12/06 02:14:50;;;;;;;;;;;;;;;0.63;96.65;97618.59;4949463;28;20167;-92
2020/12/06 02:17:15;;;;;;;;;;;;;;;0.52;96.85;97617.91;4950616;28;20194;-93
2020/12/06 02:19:41;;;;;;;;;;;;;;;0.53;98.14;97612.84;4950980;28;19922;-93
2020/12/06 02:22:07;;;;;;;;;;;;;;;0.70;96.80;97612.59;4951815;28;19925;-93
2020/12/06 02:24:32;;;;;;;;;;;;;;;0.98;96.04;97599.47;4950125;28;19922;-92
2020/12/06 02:26:57;;;;;;;;;;;;;;;1.29;94.76;97591.38;4950516;28;19922;-93
2020/12/06 02:29:23;;;;;;;;;;;;;;;1.32;93.06;97597.22;4952196;28;20008;-93
2020/12/06 02:31:48;;;;;;;;;;;;;;;1.34;94.22;97597.19;4951963;28;19987;-93
2020/12/06 02:34:13;;;;;;;;;;;;;;;1.24;94.10;97591.44;4951850;28;20098;-93
2020/12/06 02:36:39;;;;;;;;;;;;;;;1.29;93.80;97586.31;4952300;28;19926;-94
2020/12/06 02:39:05;;;;;;;;;;;;;;;1.29;94.22;97596.44;4953055;28;20057;-92
2020/12/06 02:41:34;;;;;;;;;;;;;;;1.41;94.31;97591.16;4950839;28;19975;-93
2020/12/06 02:43:59;;;;;;;;;;;;;;;1.31;93.45;97607.41;4952275;28;19932;-94
2020/12/06 02:46:24;;;;;;;;;;;;;;;1.02;95.54;97596.03;4950215;28;19922;-92
2020/12/06 02:48:49;;;;;;;;;;;;;;;1.44;94.81;97583.50;4951056;28;20012;-93
2020/12/06 02:51:15;;;;;;;;;;;;;;;1.52;93.50;97576.56;4951079;28;20611;-93
2020/12/06 02:53:40;;;;;;;;;;;;;;;1.15;93.38;97577.22;4949945;28;19933;-93
2020/12/06 02:56:05;;;;;;;;;;;;;;;1.51;94.27;97590.13;4951366;28;19985;-93
2020/12/06 02:58:30;;;;;;;;;;;;;;;1.49;93.85;97585.94;4951584;28;19918;-93
2020/12/06 03:00:56;;;;;;;;;;;;;;;1.62;93.63;97606.00;4951798;28;19921;-93
2020/12/06 03:03:21;;;;;;;;;;;;;;;1.73;92.72;97615.91;4950480;28;19972;-94
2020/12/06 03:05:46;;;;;;;;;;;;;;;1.63;92.61;97620.34;4948989;28;20396;-94
2020/12/06 03:08:12;;;;;;;;;;;;;;;1.74;93.02;97622.69;4950712;28;19965;-93
2020/12/06 03:10:37;;;;;;;;;;;;;;;1.63;93.90;97648.25;4944807;28;20704;-94
2020/12/06 03:13:02;;;;;;;;;;;;;;;1.83;92.53;97636.91;4943248;28;20282;-93
2020/12/06 03:15:27;;;;;;;;;;;;;;;1.87;92.83;97623.25;4938990;28;19965;-93
2020/12/06 03:17:53;;;;;;;;;;;;;;;1.63;92.77;97615.25;4927238;28;19926;-93
2020/12/06 03:20:18;;;;;;;;;;;;;;;1.60;93.20;97615.31;4939470;28;19922;-94
2020/12/06 03:22:43;;;;;;;;;;;;;;;1.42;94.40;97613.13;4931223;28;20692;-94
2020/12/06 03:25:09;;;;;;;;;;;;;;;1.07;97.31;97599.31;4942393;28;19958;-94
2020/12/06 03:27:34;;;;;;;;;;;;;;;1.49;94.34;97604.53;4938407;28;19922;-94
2020/12/06 03:29:59;;;;;;;;;;;;;;;1.65;94.08;97585.63;4941041;28;19922;-94
2020/12/06 03:32:24;;;;;;;;;;;;;;;1.48;95.06;97580.00;4926172;28;20374;-94
2020/12/06 03:34:50;;;;;;;;;;;;;;;1.39;96.14;97575.97;4932240;28;19977;-94
2020/12/06 03:37:15;;;;;;;;;;;;;;;1.63;95.20;97569.59;4923450;28;19922;-93
2020/12/06 03:39:40;;;;;;;;;;;;;;;1.55;94.21;97565.53;4940558;28;20015;-95
2020/12/06 03:42:06;;;;;;;;;;;;;;;1.50;95.03;97570.69;4942438;28;19942;-95
2020/12/06 03:44:32;;;;;;;;;;;;;;;1.37;96.68;97584.44;4924937;28;19976;-95
2020/12/06 03:46:57;;;;;;;;;;;;;;;1.36;97.59;97592.94;4938997;28;19954;-93
2020/12/06 03:49:22;;;;;;;;;;;;;;;1.28;97.89;97592.22;4940730;28;20009;-95
2020/12/06 03:51:48;;;;;;;;;;;;;;;1.61;97.15;97599.22;4940618;28;19929;-95
2020/12/06 03:54:13;;;;;;;;;;;;;;;1.68;98.84;97592.34;4926524;28;19925;-94
2020/12/06 03:56:38;;;;;;;;;;;;;;;1.52;97.45;97591.78;4937671;28;20024;-94
2020/12/06 03:59:03;;;;;;;;;;;;;;;1.61;97.97;97594.16;4924566;28;19919;-94
2020/12/06 04:01:29;;;;;;;;;;;;;;;1.95;96.45;97590.97;4939983;28;20409;-94
2020/12/06 04:03:54;;;;;;;;;;;;;;;1.64;97.75;97598.31;4924084;28;20004;-94
2020/12/06 04:06:19;;;;;;;;;;;;;;;1.90;95.84;97589.41;4923523;28;19926;-94
2020/12/06 04:08:45;;;;;;;;;;;;;;;1.58;95.87;97581.53;4937377;28;20774;-94
2020/12/06 04:11:10;;;;;;;;;;;;;;;1.41;97.76;97578.47;4946083;28;20107;-94
2020/12/06 04:13:35;;;;;;;;;;;;;;;1.61;96.29;97576.38;4948592;28;19949;-95
2020/12/06 04:16:00;;;;;;;;;;;;;;;2.01;95.17;97570.53;4949203;28;20366;-95
2020/12/06 04:18:26;;;;;;;;;;;;;;;2.13;93.96;97553.38;4948681;28;19965;-96
2020/12/06 04:20:51;;;;;;;;;;;;;;;2.24;93.82;97542.09;4948988;28;20429;-94
2020/12/06 04:23:16;;;;;;;;;;;;;;;2.30;93.89;97541.13;4948817;28;19922;-95
2020/12/06 04:25:41;;;;;;;;;;;;;;;2.19;93.66;97537.97;4948316;28;19922;-94
2020/12/06 04:28:10;;;;;;;;;;;;;;;1.78;95.14;97547.31;4950194;28;19922;-94
2020/12/06 04:30:35;;;;;;;;;;;;;;;1.87;96.41;97537.81;4949548;28;19922;-94
2020/12/06 04:33:01;;;;;;;;;;;;;;;1.92;96.73;97540.25;4948092;28;20359;-94
2020/12/06 04:35:26;;;;;;;;;;;;;;;1.84;98.15;97544.66;4949256;28;19965;-95
2020/12/06 04:37:51;;;;;;;;;;;;;;;1.73;97.96;97547.38;4949213;28;19918;-94
2020/12/06 04:40:17;;;;;;;;;;;;;;;2.23;96.56;97560.72;4948068;28;19926;-95
2020/12/06 04:42:42;;;;;;;;;;;;;;;1.77;99.35;97569.31;4949398;28;20004;-93
2020/12/06 04:45:07;;;;;;;;;;;;;;;1.43;100.00;97571.66;4949087;28;20031;-94
2020/12/06 04:47:52;;;;;;;;;;;;;;;1.11;100.00;97580.69;4947543;28;20390;-94
2020/12/06 04:50:25;;;;;;;;;;;;;;;1.25;100.00;97583.84;4948652;28;19928;-95
2020/12/06 04:52:54;;;;;;;;;;;;;;;1.43;100.00;97564.06;4949832;28;19922;-95
2020/12/06 04:55:21;;;;;;;;;;;;;;;1.36;100.00;97557.44;4934171;28;21860;-94
2020/12/06 04:57:46;;;;;;;;;;;;;;;1.35;100.00;97558.31;4948950;28;19932;-95
2020/12/06 05:00:11;;;;;;;;;;;;;;;1.48;99.33;97564.78;4947044;28;19928;-94
2020/12/06 05:02:37;;;;;;;;;;;;;;;1.37;100.00;97562.47;4949955;28;19925;-94
2020/12/06 05:05:03;;;;;;;;;;;;;;;1.62;99.58;97554.38;4949783;28;19990;-94
2020/12/06 05:07:29;;;;;;;;;;;;;;;1.52;99.89;97545.28;4947908;28;19980;-93
2020/12/06 05:09:54;;;;;;;;;;;;;;;1.56;100.00;97542.66;4957555;28;19930;-95
2020/12/06 05:12:20;;;;;;;;;;;;;;;1.55;100.00;97541.00;4948524;28;19972;-94
2020/12/06 05:14:45;;;;;;;;;;;;;;;1.56;99.60;97557.88;4948001;28;20023;-94
2020/12/06 05:17:10;;;;;;;;;;;;;;;1.52;99.90;97553.72;4948638;28;20607;-94
2020/12/06 05:19:36;;;;;;;;;;;;;;;1.60;99.71;97561.22;4947046;28;19933;-94
2020/12/06 05:22:01;;;;;;;;;;;;;;;1.72;100.00;97567.75;4949370;28;20454;-94
2020/12/06 05:24:26;;;;;;;;;;;;;;;1.62;100.00;97570.47;4948793;28;19921;-94
2020/12/06 05:26:52;;;;;;;;;;;;;;;1.65;99.65;97567.84;4948386;28;19929;-95
2020/12/06 05:29:17;;;;;;;;;;;;;;;1.82;98.56;97554.00;4943227;28;19921;-95
2020/12/06 05:31:42;;;;;;;;;;;;;;;1.75;99.42;97537.22;4948600;28;19925;-94
2020/12/06 05:34:08;;;;;;;;;;;;;;;1.56;100.00;97531.69;4948651;28;19961;-94
2020/12/06 05:36:33;;;;;;;;;;;;;;;1.72;100.00;97529.69;4948228;28;19922;-95
2020/12/06 05:38:58;;;;;;;;;;;;;;;1.70;100.00;97528.88;4948965;28;19960;-94
2020/12/06 05:41:24;;;;;;;;;;;;;;;1.79;100.00;97534.59;4948831;28;19918;-94
2020/12/06 05:43:49;;;;;;;;;;;;;;;2.01;100.00;97540.06;4949030;28;19921;-94
2020/12/06 05:46:15;;;;;;;;;;;;;;;1.93;100.00;97534.31;4946386;28;20127;-94
2020/12/06 05:48:42;;;;;;;;;;;;;;;1.78;100.00;97527.84;4944185;28;20589;-94
2020/12/06 05:51:08;;;;;;;;;;;;;;;1.88;100.00;97531.84;4945487;28;19922;-94
2020/12/06 05:53:34;;;;;;;;;;;;;;;1.97;100.00;97523.22;4948691;28;20021;-94
2020/12/06 05:56:12;;;;;;;;;;;;;;;1.99;100.00;97518.13;4948566;28;20012;-91
2020/12/06 05:58:38;;;;;;;;;;;;;;;2.15;100.00;97511.00;4949436;28;20709;-92
2020/12/06 06:01:04;;;;;;;;;;;;;;;2.12;100.00;97504.25;4948656;28;20136;-94
2020/12/06 06:03:35;;;;;;;;;;;;;;;2.12;99.27;97504.25;4948608;28;20272;-94
2020/12/06 06:06:02;;;;;;;;;;;;;;;2.17;100.00;97510.09;4948354;28;19926;-94
2020/12/06 06:08:27;;;;;;;;;;;;;;;2.15;99.59;97506.75;4947597;28;19922;-93
2020/12/06 06:11:01;;;;;;;;;;;;;;;2.23;100.00;97511.66;4946608;28;19933;-93
2020/12/06 06:13:27;;;;;;;;;;;;;;;2.17;100.00;97519.44;4959917;28;19926;-94
2020/12/06 06:15:52;;;;;;;;;;;;;;;2.11;100.00;97524.63;4947933;28;19922;-93
2020/12/06 06:18:17;;;;;;;;;;;;;;;2.11;100.00;97529.72;4947912;28;20009;-93
2020/12/06 06:20:42;;;;;;;;;;;;;;;2.19;99.87;97537.97;4946967;28;19940;-94
2020/12/06 06:23:08;;;;;;;;;;;;;;;2.48;100.00;97540.69;4947976;28;19926;-95
2020/12/06 06:25:33;;;;;;;;;;;;;;;2.77;98.90;97539.19;4948735;28;20935;-93
2020/12/06 06:27:58;;;;;;;;;;;;;;;2.33;100.00;97547.81;4948728;28;19929;-93
2020/12/06 06:30:24;;;;;;;;;;;;;;;2.07;100.00;97554.31;4951032;28;19922;-92
2020/12/06 06:32:49;;;;;;;;;;;;;;;1.89;100.00;97560.63;4961540;28;19989;-93
2020/12/06 06:35:14;;;;;;;;;;;;;;;1.92;100.00;97552.94;4951875;28;20576;-94
2020/12/06 06:37:39;;;;;;;;;;;;;;;1.73;100.00;97544.03;4951578;28;19926;-95
2020/12/06 06:40:09;;;;;;;;;;;;;;;1.70;100.00;97533.94;4952348;28;19922;-93
2020/12/06 06:42:38;;;;;;;;;;;;;;;1.82;100.00;97528.59;4951496;28;20040;-93
2020/12/06 06:45:03;;;;;;;;;;;;;;;1.81;100.00;97519.34;4962360;28;19921;-93
2020/12/06 06:47:29;;;;;;;;;;;;;;;1.79;100.00;97521.06;4958171;28;19944;-93
2020/12/06 06:49:58;;;;;;;;;;;;;;;1.50;100.00;97512.31;4950646;28;19933;-94
2020/12/06 06:52:24;;;;;;;;;;;;;;;1.31;100.00;97503.41;4951283;28;19928;-94
2020/12/06 06:54:50;;;;;;;;;;;;;;;1.31;100.00;97500.88;4950320;28;20000;-94
2020/12/06 06:57:16;;;;;;;;;;;;;;;1.16;100.00;97500.28;4960824;28;19926;-93
2020/12/06 06:59:45;;;;;;;;;;;;;;;1.22;100.00;97512.88;4951639;28;19918;-93
2020/12/06 07:02:20;;;;;;;;;;;;;;;1.36;100.00;97527.00;4951084;28;19922;-94
2020/12/06 07:04:48;;;;;;;;;;;;;;;1.54;100.00;97513.13;4963186;28;20069;-94
2020/12/06 07:07:15;;;;;;;;;;;;;;;1.41;100.00;97525.19;4945084;28;19954;-94
2020/12/06 07:09:40;;;;;;;;;;;;;;;1.58;100.00;97530.78;4949090;28;20083;-94
2020/12/06 07:12:05;;;;;;;;;;;;;;;1.80;100.00;97530.34;4951422;28;20005;-94
2020/12/06 07:14:30;;;;;;;;;;;;;;;1.77;100.00;97522.81;4950954;28;20048;-94
2020/12/06 07:16:56;;;;;;;;;;;;;;;1.81;100.00;97522.72;4950222;28;19936;-93
2020/12/06 07:19:22;;;;;;;;;;;;;;;1.73;100.00;97509.31;4950405;28;19925;-92
2020/12/06 07:21:48;;;;;;;;;;;;;;;1.65;100.00;97506.97;4943785;28;20000;-93
2020/12/06 07:24:14;;;;;;;;;;;;;;;1.59;100.00;97507.06;4951532;28;20374;-94
2020/12/06 07:26:40;;;;;;;;;;;;;;;1.76;100.00;97508.44;4941497;28;19925;-94
2020/12/06 07:29:06;;;;;;;;;;;;;;;1.79;100.00;97508.38;4950666;28;19926;-94
2020/12/06 07:31:31;;;;;;;;;;;;;;;1.73;100.00;97505.97;4950754;28;19929;-91
2020/12/06 07:33:56;;;;;;;;;;;;;;;1.67;100.00;97510.31;4949655;28;19922;-93
2020/12/06 07:36:22;;;;;;;;;;;;;;;1.63;100.00;97518.00;4949145;28;19961;-94
2020/12/06 07:38:47;;;;;;;;;;;;;;;1.64;100.00;97512.06;4949214;28;19968;-94
2020/12/06 07:41:12;;;;;;;;;;;;;;;1.78;100.00;97514.31;4950708;28;19922;-93
2020/12/06 07:43:39;;;;;;;;;;;;;;;1.73;100.00;97513.56;4948710;28;19922;-93
2020/12/06 07:46:11;;;;;;;;;;;;;;;1.80;100.00;97512.56;4950860;28;19992;-93
2020/12/06 07:48:36;;;;;;;;;;;;;;;1.73;100.00;97509.31;4950201;28;19969;-91
2020/12/06 07:51:01;;;;;;;;;;;;;;;1.73;100.00;97504.25;4950622;28;19957;-93
2020/12/06 07:53:26;;;;;;;;;;;;;;;1.87;100.00;97514.13;4949774;28;19926;-93
2020/12/06 07:56:03;;;;;;;;;;;;;;;1.84;100.00;97514.19;4948966;28;19925;-94
2020/12/06 07:58:29;;;;;;;;;;;;;;;1.68;100.00;97524.66;4949957;28;19921;-92
2020/12/06 08:00:54;;;;;;;;;;;;;;;1.57;100.00;97521.50;4949028;28;19917;-93
2020/12/06 08:03:19;;;;;;;;;;;;;;;1.69;100.00;97522.97;4949826;28;20367;-93
2020/12/06 08:05:44;;;;;;;;;;;;;;;1.78;100.00;97532.06;4949794;28;19921;-92
2020/12/06 08:08:12;;;;;;;;;;;;;;;1.80;100.00;97533.75;4950221;28;19928;-92
2020/12/06 08:10:37;;;;;;;;;;;;;;;2.13;100.00;97543.22;4947019;28;19926;-94
2020/12/06 08:13:03;;;;;;;;;;;;;;;1.98;100.00;97542.66;4950036;28;19922;-94
2020/12/06 08:15:29;;;;;;;;;;;;;;;2.00;100.00;97533.28;4950116;28;19921;-93
2020/12/06 08:17:54;;;;;;;;;;;;;;;1.73;100.00;97528.81;4950102;28;19922;-93
2020/12/06 08:20:20;;;;;;;;;;;;;;;1.71;100.00;97526.31;4949988;28;20013;-93
2020/12/06 08:23:04;;;;;;;;;;;;;;;1.70;100.00;97518.72;4949113;28;19963;-93
2020/12/06 08:25:30;;;;;;;;;;;;;;;1.85;100.00;97514.16;4948961;28;19945;-93
2020/12/06 08:27:56;;;;;;;;;;;;;;;1.69;100.00;97502.66;4948226;28;20114;-93
2020/12/06 08:30:23;;;;;;;;;;;;;;;1.69;100.00;97502.66;4949178;28;20016;-93
2020/12/06 08:32:52;;;;;;;;;;;;;;;1.66;100.00;97508.63;4949157;28;20008;-92
2020/12/06 08:35:18;;;;;;;;;;;;;;;1.66;100.00;97512.88;4948616;28;19926;-93
2020/12/06 08:37:43;;;;;;;;;;;;;;;1.84;100.00;97506.56;4948764;28;19933;-93
2020/12/06 08:40:08;;;;;;;;;;;;;;;1.67;100.00;97510.31;4947941;28;19996;-91
2020/12/06 08:42:33;;;;;;;;;;;;;;;1.75;100.00;97506.75;4948556;28;19921;-93
2020/12/06 08:44:59;;;;;;;;;;;;;;;1.74;100.00;97497.50;4948555;28;19948;-93
2020/12/06 08:47:27;;;;;;;;;;;;;;;1.62;100.00;97494.34;4948058;28;19922;-93
2020/12/06 08:50:06;;;;;;;;;;;;;;;1.73;100.00;97485.66;4945705;28;19918;-94
2020/12/06 08:52:31;;;;;;;;;;;;;;;1.81;100.00;97479.56;4948861;28;19949;-94
2020/12/06 08:54:58;;;;;;;;;;;;;;;1.81;100.00;97478.72;4947446;28;19961;-95
2020/12/06 08:57:24;;;;;;;;;;;;;;;1.76;100.00;97467.84;4950037;28;19922;-93
2020/12/06 08:59:49;;;;;;;;;;;;;;;1.60;100.00;97463.09;4950169;28;19922;-93
2020/12/06 09:05:25;;;;;;;;;;;;;;;1.69;100.00;97469.69;4979135;28;19933;-96
2020/12/06 09:07:50;;;;;;;;;;;;;;;1.61;100.00;97469.00;4951194;28;20295;-94
2020/12/06 09:10:15;;;;;;;;;;;;;;;1.81;100.00;97460.97;4948452;28;19937;-95
2020/12/06 09:12:51;;;;;;;;;;;;;;;1.67;100.00;97459.56;4948795;28;19926;-96
2020/12/06 09:15:16;;;;;;;;;;;;;;;1.51;100.00;97458.22;4970133;28;20255;-95
2020/12/06 09:17:42;;;;;;;;;;;;;;;1.67;100.00;97449.41;4948830;28;19961;-94
2020/12/06 09:20:07;;;;;;;;;;;;;;;1.75;100.00;97446.69;4953279;28;19933;-93
2020/12/06 09:22:32;;;;;;;;;;;;;;;1.67;100.00;97456.19;4956903;28;19918;-94
2020/12/06 09:24:58;;;;;;;;;;;;;;;1.66;100.00;97457.88;4952456;28;19917;-95
2020/12/06 09:27:23;;;;;;;;;;;;;;;1.75;100.00;97446.69;4950646;28;19918;-96
2020/12/06 09:29:48;;;;;;;;;;;;;;;1.61;100.00;97454.59;4950855;28;20616;-95
2020/12/06 09:32:14;;;;;;;;;;;;;;;1.72;100.00;97453.53;4949755;28;19922;-94
2020/12/06 09:34:39;;;;;;;;;;;;;;;1.78;100.00;97459.31;4947700;28;19941;-95
2020/12/06 09:37:04;;;;;;;;;;;;;;;1.75;100.00;97463.63;4955754;28;20000;-96
2020/12/06 09:39:30;;;;;;;;;;;;;;;2.01;100.00;97476.59;4947775;28;19930;-93
2020/12/06 09:41:56;;;;;;;;;;;;;;;1.97;100.00;97474.16;4948942;28;19996;-96
2020/12/06 09:44:26;;;;;;;;;;;;;;;1.90;100.00;97468.38;4948987;28;19906;-95
2020/12/06 09:46:52;;;;;;;;;;;;;;;1.87;100.00;97463.34;4953834;28;19957;-94
2020/12/06 09:49:17;;;;;;;;;;;;;;;1.88;100.00;97472.66;4948077;28;19969;-94
2020/12/06 09:51:42;;;;;;;;;;;;;;;1.89;100.00;97471.75;4947155;28;19957;-93
2020/12/06 09:54:08;;;;;;;;;;;;;;;2.02;100.00;97470.63;4948991;28;19926;-94
2020/12/06 09:56:33;;;;;;;;;;;;;;;2.23;100.00;97468.47;4947310;28;19922;-92
2020/12/06 09:58:58;;;;;;;;;;;;;;;2.00;100.00;97464.75;4948063;28;19922;-92
2020/12/06 10:01:24;;;;;;;;;;;;;;;2.07;100.00;97462.91;4945716;28;19926;-92
2020/12/06 10:03:50;;;;;;;;;;;;;;;1.86;100.00;97464.22;4949821;28;19976;-93
2020/12/06 10:06:21;;;;;;;;;;;;;;;2.00;100.00;97457.13;4948531;28;19930;-94
2020/12/06 10:08:46;;;;;;;;;;;;;;;1.79;100.00;97448.28;4935989;28;20009;-94
2020/12/06 10:11:12;;;;;;;;;;;;;;;1.79;100.00;97445.75;4949665;28;20610;-93
2020/12/06 10:13:37;;;;;;;;;;;;;;;2.11;100.00;97453.53;4950968;28;19922;-93
2020/12/06 10:16:02;;;;;;;;;;;;;;;1.86;100.00;97438.84;4949779;28;19929;-92
2020/12/06 10:18:27;;;;;;;;;;;;;;;1.86;100.00;97421.06;4950867;28;19929;-91
2020/12/06 10:20:53;;;;;;;;;;;;;;;2.15;100.00;97412.78;4949819;28;19933;-92
2020/12/06 10:23:18;;;;;;;;;;;;;;;2.11;100.00;97398.50;4950586;28;20302;-93
2020/12/06 10:25:44;;;;;;;;;;;;;;;1.87;100.00;97405.81;4951245;28;19925;-93
2020/12/06 10:28:09;;;;;;;;;;;;;;;1.92;100.00;97413.34;4951171;28;19936;-93
2020/12/06 10:30:35;;;;;;;;;;;;;;;2.04;100.00;97417.28;4950116;28;20804;-96
2020/12/06 10:33:00;;;;;;;;;;;;;;;2.14;100.00;97410.28;4947034;28;20629;-92
2020/12/06 10:35:28;;;;;;;;;;;;;;;2.25;100.00;97403.25;4951241;28;19929;-96
2020/12/06 10:37:54;;;;;;;;;;;;;;;2.47;100.00;97401.84;4948812;28;20113;-94
2020/12/06 10:40:19;;;;;;;;;;;;;;;2.35;100.00;97396.22;4950061;28;20696;-95
2020/12/06 10:42:45;;;;;;;;;;;;;;;2.15;100.00;97399.25;4960603;28;19941;-96
2020/12/06 10:45:11;;;;;;;;;;;;;;;2.54;100.00;97394.06;4955647;28;19965;-96
2020/12/06 10:47:36;;;;;;;;;;;;;;;2.59;100.00;97394.78;4949270;28;19922;-93
2020/12/06 10:50:01;;;;;;;;;;;;;;;2.41;100.00;97384.19;4949402;28;19926;-94
2020/12/06 10:52:26;;;;;;;;;;;;;;;2.35;100.00;97381.84;4948254;28;20294;-94
2020/12/06 10:54:52;;;;;;;;;;;;;;;2.34;100.00;97384.41;4958866;23;19931;-84
2020/12/06 10:57:18;;;;;;;;;;;;;;;2.24;100.00;97371.09;4938603;28;19923;-83
2020/12/06 10:59:43;;;;;;;;;;;;;;;2.27;100.00;97379.47;4939678;28;19985;-83
2020/12/06 11:02:09;;;;;;;;;;;;;;;2.25;100.00;97373.59;4941182;28;19923;-84
2020/12/06 11:04:34;;;;;;;;;;;;;;;2.20;100.00;97372.88;4942015;28;19918;-84
2020/12/06 11:06:59;;;;;;;;;;;;;;;2.34;100.00;97375.06;4953657;28;19918;-83
2020/12/06 11:09:25;;;;;;;;;;;;;;;2.47;100.00;97366.25;4940756;28;20015;-83
2020/12/06 11:11:51;;;;;;;;;;;;;;;2.48;100.00;97362.00;4921877;29;20018;-83
2020/12/06 11:14:17;;;;;;;;;;;;;;;2.77;100.00;97358.69;4953831;28;19915;-84
2020/12/06 11:16:42;;;;;;;;;;;;;;;2.68;100.00;97359.78;4943003;28;19925;-83
2020/12/06 11:19:07;;;;;;;;;;;;;;;2.58;100.00;97357.50;4937610;29;19918;-83
2020/12/06 11:21:33;;;;;;;;;;;;;;;2.61;100.00;97362.53;4943515;29;19914;-83
2020/12/06 11:23:58;;;;;;;;;;;;;;;2.63;100.00;97365.88;4951869;29;20009;-83
2020/12/06 11:26:24;;;;;;;;;;;;;;;2.65;100.00;97364.13;4937721;28;19957;-83
2020/12/06 11:28:49;;;;;;;;;;;;;;;2.49;100.00;97356.91;4938583;28;19944;-83
2020/12/06 11:31:15;;;;;;;;;;;;;;;2.16;100.00;97353.50;4936973;28;19970;-83
2020/12/06 11:33:40;;;;;;;;;;;;;;;2.17;100.00;97349.28;4931177;28;19926;-83
2020/12/06 11:36:05;;;;;;;;;;;;;;;2.32;100.00;97356.50;4934384;28;20003;-83
2020/12/06 11:38:32;;;;;;;;;;;;;;;2.37;100.00;97349.56;4938725;28;19962;-83
2020/12/06 11:40:57;;;;;;;;;;;;;;;2.51;100.00;97347.53;4935131;28;19918;-83
2020/12/06 11:43:23;;;;;;;;;;;;;;;2.18;100.00;97356.00;4938582;28;19925;-83
2020/12/06 11:45:48;;;;;;;;;;;;;;;2.29;100.00;97356.56;4939182;28;19923;-83
2020/12/06 11:48:14;;;;;;;;;;;;;;;2.37;100.00;97349.56;4937223;28;19919;-83
2020/12/06 11:50:39;;;;;;;;;;;;;;;2.49;100.00;97349.28;4937740;28;20100;-83
2020/12/06 11:53:04;;;;;;;;;;;;;;;2.37;100.00;97344.50;4920775;28;20380;-80
2020/12/06 11:55:30;;;;;;;;;;;;;;;2.61;100.00;97332.03;4938403;28;19926;-80
2020/12/06 11:57:56;;;;;;;;;;;;;;;2.99;100.00;97353.00;4933357;28;19914;-80
2020/12/06 12:00:22;;;;;;;;;;;;;;;3.22;100.00;97360.84;4932320;29;19929;-80
2020/12/06 12:02:47;;;;;;;;;;;;;;;2.97;100.00;97352.25;4953138;28;20053;-80
2020/12/06 12:05:13;;;;;;;;;;;;;;;3.02;100.00;97358.03;4946715;28;19925;-80
2020/12/06 12:07:38;;;;;;;;;;;;;;;2.79;100.00;97351.88;4931354;28;19922;-80
2020/12/06 12:10:04;;;;;;;;;;;;;;;2.66;100.00;97348.81;4931646;28;19914;-80
2020/12/06 12:12:29;;;;;;;;;;;;;;;3.02;100.00;97352.94;4947273;28;19926;-80
2020/12/06 12:14:54;;;;;;;;;;;;;;;2.94;100.00;97353.13;4940059;28;19919;-80
2020/12/06 12:17:20;;;;;;;;;;;;;;;3.06;100.00;97355.34;4946029;28;19923;-80
2020/12/06 12:19:45;;;;;;;;;;;;;;;2.97;100.00;97347.16;4940638;28;19964;-80
2020/12/06 12:22:10;;;;;;;;;;;;;;;3.10;100.00;97354.41;4939053;28;19923;-80
2020/12/06 12:24:36;;;;;;;;;;;;;;;3.14;100.00;97357.66;4937606;28;20898;-80
2020/12/06 12:27:01;;;;;;;;;;;;;;;3.50;100.00;97355.75;4934032;28;19973;-80
2020/12/06 12:29:27;;;;;;;;;;;;;;;3.46;100.00;97359.25;4931322;29;19977;-80
2020/12/06 12:31:52;;;;;;;;;;;;;;;3.59;99.98;97359.75;4938677;28;19926;-79
2020/12/06 12:34:18;;;;;;;;;;;;;;;3.52;99.75;97364.19;4937273;28;19954;-80
2020/12/06 12:36:44;;;;;;;;;;;;;;;3.30;100.00;97358.88;4947928;28;19997;-80
2020/12/06 12:39:10;;;;;;;;;;;;;;;3.48;100.00;97359.22;4932682;28;19919;-80
2020/12/06 12:41:35;;;;;;;;;;;;;;;3.57;100.00;97361.50;4945592;28;21077;-80
2020/12/06 12:44:02;;;;;;;;;;;;;;;3.30;100.00;97356.34;4945603;28;19923;-80
2020/12/06 12:46:28;;;;;;;;;;;;;;;3.37;100.00;97351.91;4936288;28;19919;-80